GBRPC EGHI-EGJB
Flight info
| Callsign | GBRPC |
|---|---|
| Flight time | 0h 50m |
| Altitude | 6000 |
| Route | DCT NEDUL Q41 ORTAC ORTAC1V |
| Aircraft | BN2P/L-SFG/C |
Departure
| Time | 2026-04-25 12:23 |
|---|---|
| Airport | Southampton Airport (EGHI) |
Arrival
| Time | 2026-04-25 13:13 |
|---|---|
| Airport | Guernsey Airport (EGJB) |
| Time | Latitude | Longitude | Altitude | Speed | Heading |
|---|---|---|---|---|---|
| 2026-04-25 11:43 | 50.95430 | -1.35805 | 35 ft | 0 kts | 289° |
| 2026-04-25 12:14 | 50.95430 | -1.35806 | 35 ft | 1 kts | 281° |
| 2026-04-25 12:15 | 50.95419 | -1.35800 | 35 ft | 4 kts | 89° |
| 2026-04-25 12:15 | 50.95420 | -1.35760 | 35 ft | 4 kts | 94° |
| 2026-04-25 12:15 | 50.95419 | -1.35754 | 35 ft | 0 kts | 110° |
| 2026-04-25 12:16 | 50.95390 | -1.35734 | 36 ft | 5 kts | 201° |
| 2026-04-25 12:16 | 50.95340 | -1.35762 | 36 ft | 11 kts | 199° |
| 2026-04-25 12:16 | 50.95242 | -1.35816 | 36 ft | 19 kts | 199° |
| 2026-04-25 12:16 | 50.95194 | -1.35843 | 35 ft | 9 kts | 199° |
| 2026-04-25 12:17 | 50.95114 | -1.35888 | 36 ft | 7 kts | 201° |
| 2026-04-25 12:17 | 50.95041 | -1.35928 | 36 ft | 15 kts | 200° |
| 2026-04-25 12:17 | 50.94968 | -1.35969 | 36 ft | 11 kts | 199° |
| 2026-04-25 12:17 | 50.94866 | -1.36026 | 36 ft | 19 kts | 199° |
| 2026-04-25 12:18 | 50.94720 | -1.36107 | 35 ft | 20 kts | 199° |
| 2026-04-25 12:18 | 50.94664 | -1.36137 | 35 ft | 6 kts | 195° |
| 2026-04-25 12:18 | 50.94650 | -1.36141 | 35 ft | 10 kts | 185° |
| 2026-04-25 12:18 | 50.94591 | -1.36097 | 35 ft | 2 kts | 128° |
| 2026-04-25 12:19 | 50.94591 | -1.36095 | 35 ft | 0 kts | 115° |
| 2026-04-25 12:20 | 50.94588 | -1.36087 | 35 ft | 6 kts | 114° |
| 2026-04-25 12:20 | 50.94566 | -1.35994 | 35 ft | 11 kts | 108° |
| 2026-04-25 12:20 | 50.94589 | -1.35923 | 35 ft | 0 kts | 18° |
| 2026-04-25 12:21 | 50.94621 | -1.35906 | 35 ft | 24 kts | 19° |
| 2026-04-25 12:21 | 50.94966 | -1.35714 | 37 ft | 78 kts | 17° |
| 2026-04-25 12:21 | 50.95594 | -1.35360 | 144 ft | 109 kts | 21° |
| 2026-04-25 12:21 | 50.95902 | -1.35191 | 183 ft | 121 kts | 19° |
| 2026-04-25 12:22 | 50.96729 | -1.34725 | 398 ft | 131 kts | 22° |
| 2026-04-25 12:22 | 50.97187 | -1.34441 | 476 ft | 138 kts | 23° |
| 2026-04-25 12:22 | 50.98154 | -1.33807 | 488 ft | 152 kts | 24° |
| 2026-04-25 12:22 | 50.99134 | -1.33141 | 639 ft | 152 kts | 25° |
| 2026-04-25 12:23 | 51.00113 | -1.32619 | 770 ft | 153 kts | 5° |
| 2026-04-25 12:23 | 51.01083 | -1.33223 | 943 ft | 152 kts | 318° |
| 2026-04-25 12:23 | 51.01584 | -1.34663 | 1131 ft | 151 kts | 281° |
| 2026-04-25 12:23 | 51.01424 | -1.36290 | 1327 ft | 152 kts | 242° |
| 2026-04-25 12:24 | 51.00656 | -1.37388 | 1503 ft | 150 kts | 202° |
| 2026-04-25 12:24 | 50.99684 | -1.37845 | 1711 ft | 148 kts | 194° |
| 2026-04-25 12:24 | 50.98678 | -1.38332 | 1923 ft | 149 kts | 197° |
| 2026-04-25 12:24 | 50.97664 | -1.38853 | 2153 ft | 154 kts | 197° |
| 2026-04-25 12:25 | 50.96643 | -1.39376 | 2372 ft | 157 kts | 198° |
| 2026-04-25 12:25 | 50.95597 | -1.39916 | 2578 ft | 157 kts | 196° |
| 2026-04-25 12:25 | 50.94548 | -1.40450 | 2785 ft | 159 kts | 197° |
| 2026-04-25 12:25 | 50.93500 | -1.41001 | 2978 ft | 159 kts | 197° |
| 2026-04-25 12:26 | 50.92454 | -1.41540 | 3176 ft | 157 kts | 197° |
| 2026-04-25 12:26 | 50.91410 | -1.42069 | 3382 ft | 158 kts | 197° |
| 2026-04-25 12:26 | 50.90363 | -1.42607 | 3592 ft | 158 kts | 198° |
| 2026-04-25 12:26 | 50.89316 | -1.43151 | 3792 ft | 159 kts | 198° |
| 2026-04-25 12:27 | 50.88271 | -1.43689 | 3986 ft | 158 kts | 198° |
| 2026-04-25 12:27 | 50.87221 | -1.44230 | 4181 ft | 158 kts | 198° |
| 2026-04-25 12:27 | 50.86176 | -1.44768 | 4389 ft | 158 kts | 198° |
| 2026-04-25 12:27 | 50.85145 | -1.45297 | 4588 ft | 158 kts | 198° |
| 2026-04-25 12:28 | 50.84101 | -1.45832 | 4795 ft | 157 kts | 198° |
| 2026-04-25 12:28 | 50.83057 | -1.46368 | 4993 ft | 158 kts | 198° |
| 2026-04-25 12:28 | 50.82010 | -1.46907 | 5192 ft | 158 kts | 199° |
| 2026-04-25 12:28 | 50.80965 | -1.47443 | 5395 ft | 158 kts | 199° |
| 2026-04-25 12:29 | 50.79926 | -1.47974 | 5596 ft | 159 kts | 199° |
| 2026-04-25 12:29 | 50.78869 | -1.48517 | 5804 ft | 160 kts | 199° |
| 2026-04-25 12:29 | 50.77806 | -1.49063 | 6015 ft | 160 kts | 199° |
| 2026-04-25 12:29 | 50.76714 | -1.49620 | 6001 ft | 173 kts | 199° |
| 2026-04-25 12:30 | 50.75560 | -1.50213 | 6017 ft | 176 kts | 199° |
| 2026-04-25 12:30 | 50.74397 | -1.50809 | 6010 ft | 175 kts | 199° |
| 2026-04-25 12:30 | 50.73234 | -1.51402 | 6002 ft | 174 kts | 199° |
| 2026-04-25 12:30 | 50.72072 | -1.51996 | 6003 ft | 177 kts | 199° |
| 2026-04-25 12:31 | 50.70894 | -1.52597 | 6010 ft | 179 kts | 199° |
| 2026-04-25 12:31 | 50.69707 | -1.53201 | 6019 ft | 181 kts | 199° |
| 2026-04-25 12:31 | 50.69655 | -1.53226 | 6025 ft | 180 kts | 198° |
| 2026-04-25 12:37 | 50.68566 | -1.53780 | 5992 ft | 185 kts | 199° |
| 2026-04-25 12:38 | 50.67344 | -1.54420 | 5999 ft | 185 kts | 200° |
| 2026-04-25 12:38 | 50.66137 | -1.55103 | 5989 ft | 185 kts | 204° |
| 2026-04-25 12:38 | 50.64971 | -1.55920 | 5994 ft | 182 kts | 205° |
| 2026-04-25 12:38 | 50.63815 | -1.56727 | 6000 ft | 181 kts | 205° |
| 2026-04-25 12:39 | 50.62673 | -1.57520 | 5995 ft | 177 kts | 205° |
| 2026-04-25 12:39 | 50.61564 | -1.58291 | 5994 ft | 173 kts | 205° |
| 2026-04-25 12:39 | 50.60472 | -1.59049 | 5993 ft | 170 kts | 205° |
| 2026-04-25 12:39 | 50.59395 | -1.59796 | 5991 ft | 168 kts | 205° |
| 2026-04-25 12:40 | 50.58329 | -1.60536 | 5997 ft | 167 kts | 205° |
| 2026-04-25 12:40 | 50.57266 | -1.61273 | 6002 ft | 166 kts | 205° |
| 2026-04-25 12:40 | 50.56222 | -1.61997 | 5995 ft | 166 kts | 205° |
| 2026-04-25 12:40 | 50.55153 | -1.62738 | 6011 ft | 171 kts | 205° |
| 2026-04-25 12:41 | 50.54046 | -1.63505 | 6017 ft | 175 kts | 205° |
| 2026-04-25 12:41 | 50.52922 | -1.64284 | 6020 ft | 177 kts | 205° |
| 2026-04-25 12:41 | 50.51788 | -1.65068 | 6012 ft | 179 kts | 205° |
| 2026-04-25 12:41 | 50.50645 | -1.65858 | 6008 ft | 180 kts | 205° |
| 2026-04-25 12:42 | 50.49499 | -1.66649 | 6011 ft | 180 kts | 205° |
| 2026-04-25 12:42 | 50.48740 | -1.67173 | 6011 ft | 180 kts | 205° |
| 2026-04-25 12:42 | 50.47208 | -1.68232 | 6010 ft | 180 kts | 205° |
| 2026-04-25 12:42 | 50.46078 | -1.69011 | 6002 ft | 175 kts | 205° |
| 2026-04-25 12:43 | 50.44989 | -1.69760 | 6002 ft | 171 kts | 205° |
| 2026-04-25 12:43 | 50.43904 | -1.70507 | 5999 ft | 169 kts | 205° |
| 2026-04-25 12:43 | 50.41763 | -1.71981 | 6000 ft | 167 kts | 205° |
| 2026-04-25 12:44 | 50.40702 | -1.72713 | 5999 ft | 166 kts | 205° |
| 2026-04-25 12:44 | 50.39643 | -1.73441 | 5998 ft | 166 kts | 205° |
| 2026-04-25 12:44 | 50.37526 | -1.74896 | 6003 ft | 166 kts | 205° |
| 2026-04-25 12:45 | 50.36468 | -1.75622 | 5997 ft | 166 kts | 205° |
| 2026-04-25 12:45 | 50.35412 | -1.76347 | 5997 ft | 166 kts | 205° |
| 2026-04-25 12:45 | 50.33313 | -1.77787 | 6000 ft | 166 kts | 205° |
| 2026-04-25 12:46 | 50.32256 | -1.78511 | 5998 ft | 166 kts | 205° |
| 2026-04-25 12:46 | 50.31200 | -1.79234 | 6002 ft | 166 kts | 205° |
| 2026-04-25 12:46 | 50.30143 | -1.79959 | 5997 ft | 166 kts | 205° |
| 2026-04-25 12:46 | 50.29085 | -1.80682 | 5999 ft | 166 kts | 205° |
| 2026-04-25 12:47 | 50.28029 | -1.81404 | 6003 ft | 166 kts | 205° |
| 2026-04-25 12:47 | 50.26974 | -1.82127 | 6001 ft | 166 kts | 205° |
| 2026-04-25 12:47 | 50.25917 | -1.82850 | 6001 ft | 166 kts | 205° |
| 2026-04-25 12:47 | 50.24878 | -1.83560 | 6000 ft | 166 kts | 205° |
| 2026-04-25 12:48 | 50.23820 | -1.84282 | 5999 ft | 166 kts | 205° |
| 2026-04-25 12:48 | 50.22757 | -1.85008 | 5998 ft | 166 kts | 205° |
| 2026-04-25 12:48 | 50.21696 | -1.85730 | 5998 ft | 166 kts | 206° |
| 2026-04-25 12:48 | 50.20637 | -1.86452 | 5995 ft | 166 kts | 205° |
| 2026-04-25 12:49 | 50.19577 | -1.87173 | 5994 ft | 166 kts | 205° |
| 2026-04-25 12:49 | 50.18518 | -1.87896 | 5994 ft | 166 kts | 205° |
| 2026-04-25 12:49 | 50.17459 | -1.88617 | 5996 ft | 166 kts | 205° |
| 2026-04-25 12:49 | 50.16398 | -1.89338 | 5996 ft | 166 kts | 205° |
| 2026-04-25 12:50 | 50.15336 | -1.90060 | 5992 ft | 167 kts | 205° |
| 2026-04-25 12:50 | 50.14287 | -1.90774 | 5988 ft | 167 kts | 205° |
| 2026-04-25 12:50 | 50.13225 | -1.91495 | 5990 ft | 167 kts | 205° |
| 2026-04-25 12:50 | 50.12164 | -1.92216 | 5990 ft | 166 kts | 205° |
| 2026-04-25 12:51 | 50.11102 | -1.92938 | 5989 ft | 166 kts | 205° |
| 2026-04-25 12:51 | 50.10040 | -1.93658 | 5992 ft | 166 kts | 205° |
| 2026-04-25 12:51 | 50.08978 | -1.94379 | 5992 ft | 167 kts | 206° |
| 2026-04-25 12:51 | 50.07915 | -1.95098 | 5989 ft | 166 kts | 205° |
| 2026-04-25 12:52 | 50.06851 | -1.95818 | 5990 ft | 169 kts | 205° |
| 2026-04-25 12:52 | 50.05757 | -1.96560 | 6000 ft | 174 kts | 206° |
| 2026-04-25 12:52 | 50.04652 | -1.97309 | 5999 ft | 178 kts | 205° |
| 2026-04-25 12:52 | 50.03513 | -1.98080 | 6002 ft | 179 kts | 205° |
| 2026-04-25 12:53 | 50.02365 | -1.98855 | 6001 ft | 180 kts | 205° |
| 2026-04-25 12:53 | 50.01212 | -1.99634 | 5995 ft | 181 kts | 205° |
| 2026-04-25 12:53 | 50.00082 | -2.00482 | 5988 ft | 180 kts | 215° |
| 2026-04-25 12:53 | 49.99230 | -2.01871 | 5989 ft | 177 kts | 235° |
| 2026-04-25 12:54 | 49.98489 | -2.03399 | 5988 ft | 177 kts | 234° |
| 2026-04-25 12:54 | 49.97725 | -2.04909 | 5988 ft | 178 kts | 233° |
| 2026-04-25 12:54 | 49.96961 | -2.06424 | 5989 ft | 178 kts | 234° |
| 2026-04-25 12:54 | 49.96203 | -2.07946 | 5983 ft | 179 kts | 234° |
| 2026-04-25 12:55 | 49.95448 | -2.09476 | 5986 ft | 178 kts | 234° |
| 2026-04-25 12:55 | 49.94945 | -2.10481 | 5985 ft | 178 kts | 234° |
| 2026-04-25 12:55 | 49.93932 | -2.12489 | 5983 ft | 178 kts | 234° |
| 2026-04-25 12:55 | 49.93170 | -2.14004 | 5985 ft | 178 kts | 234° |
| 2026-04-25 12:56 | 49.92410 | -2.15524 | 5978 ft | 178 kts | 234° |
| 2026-04-25 12:56 | 49.91647 | -2.17046 | 5977 ft | 178 kts | 234° |
| 2026-04-25 12:56 | 49.90885 | -2.18563 | 5978 ft | 178 kts | 233° |
| 2026-04-25 12:56 | 49.90125 | -2.20075 | 5977 ft | 178 kts | 233° |
| 2026-04-25 12:57 | 49.89363 | -2.21590 | 5978 ft | 178 kts | 234° |
| 2026-04-25 12:57 | 49.88602 | -2.23104 | 5980 ft | 178 kts | 233° |
| 2026-04-25 12:57 | 49.87851 | -2.24599 | 5979 ft | 178 kts | 233° |
| 2026-04-25 12:57 | 49.87087 | -2.26115 | 5972 ft | 178 kts | 233° |
| 2026-04-25 12:58 | 49.86326 | -2.27626 | 5974 ft | 178 kts | 234° |
| 2026-04-25 12:58 | 49.85565 | -2.29135 | 5971 ft | 177 kts | 234° |
| 2026-04-25 12:58 | 49.84807 | -2.30639 | 5976 ft | 177 kts | 233° |
| 2026-04-25 12:58 | 49.84048 | -2.32145 | 5977 ft | 177 kts | 233° |
| 2026-04-25 12:59 | 49.83288 | -2.33649 | 5972 ft | 177 kts | 233° |
| 2026-04-25 12:59 | 49.82528 | -2.35154 | 5972 ft | 178 kts | 234° |
| 2026-04-25 12:59 | 49.81767 | -2.36657 | 5977 ft | 177 kts | 234° |
| 2026-04-25 12:59 | 49.81007 | -2.38161 | 5973 ft | 177 kts | 233° |
| 2026-04-25 13:00 | 49.80258 | -2.39643 | 5975 ft | 177 kts | 234° |
| 2026-04-25 13:00 | 49.80002 | -2.40150 | 5977 ft | 177 kts | 233° |
| 2026-04-25 13:00 | 49.78739 | -2.42640 | 5973 ft | 177 kts | 233° |
| 2026-04-25 13:00 | 49.77980 | -2.44139 | 5974 ft | 177 kts | 233° |
| 2026-04-25 13:01 | 49.77222 | -2.45633 | 5973 ft | 176 kts | 233° |
| 2026-04-25 13:01 | 49.76465 | -2.47126 | 5975 ft | 177 kts | 233° |
| 2026-04-25 13:01 | 49.75706 | -2.48620 | 5979 ft | 177 kts | 233° |
| 2026-04-25 13:01 | 49.74947 | -2.50115 | 5972 ft | 177 kts | 233° |
| 2026-04-25 13:02 | 49.74187 | -2.51610 | 5976 ft | 177 kts | 233° |
| 2026-04-25 13:02 | 49.73437 | -2.53085 | 5973 ft | 177 kts | 233° |
| 2026-04-25 13:02 | 49.72677 | -2.54577 | 5972 ft | 176 kts | 234° |
| 2026-04-25 13:02 | 49.71919 | -2.56066 | 5971 ft | 176 kts | 233° |
| 2026-04-25 13:03 | 49.71162 | -2.57554 | 5971 ft | 176 kts | 234° |
| 2026-04-25 13:03 | 49.70399 | -2.59044 | 5970 ft | 177 kts | 232° |
| 2026-04-25 13:03 | 49.69526 | -2.60380 | 5968 ft | 177 kts | 225° |
| 2026-04-25 13:03 | 49.68626 | -2.61677 | 5962 ft | 177 kts | 225° |
| 2026-04-25 13:04 | 49.67733 | -2.62987 | 5961 ft | 177 kts | 226° |
| 2026-04-25 13:04 | 49.66841 | -2.64300 | 5962 ft | 177 kts | 226° |
| 2026-04-25 13:04 | 49.65945 | -2.65611 | 5960 ft | 178 kts | 226° |
| 2026-04-25 13:04 | 49.65061 | -2.66904 | 5959 ft | 177 kts | 226° |
| 2026-04-25 13:05 | 49.64166 | -2.68213 | 5953 ft | 177 kts | 226° |
| 2026-04-25 13:05 | 49.63272 | -2.69518 | 5956 ft | 177 kts | 225° |
| 2026-04-25 13:05 | 49.62378 | -2.70826 | 5953 ft | 177 kts | 225° |
| 2026-04-25 13:05 | 49.61483 | -2.72135 | 5953 ft | 177 kts | 226° |
| 2026-04-25 13:06 | 49.60587 | -2.73442 | 5959 ft | 178 kts | 226° |
| 2026-04-25 13:06 | 49.59688 | -2.74755 | 5930 ft | 180 kts | 226° |
| 2026-04-25 13:06 | 49.58766 | -2.76103 | 5773 ft | 185 kts | 226° |
| 2026-04-25 13:06 | 49.57816 | -2.77486 | 5583 ft | 189 kts | 225° |
| 2026-04-25 13:07 | 49.56867 | -2.78866 | 5394 ft | 191 kts | 225° |
| 2026-04-25 13:07 | 49.55899 | -2.80274 | 5197 ft | 192 kts | 225° |
| 2026-04-25 13:07 | 49.54927 | -2.81688 | 5001 ft | 192 kts | 225° |
| 2026-04-25 13:07 | 49.53956 | -2.83102 | 4798 ft | 192 kts | 226° |
| 2026-04-25 13:08 | 49.52980 | -2.84521 | 4553 ft | 194 kts | 225° |
| 2026-04-25 13:08 | 49.51996 | -2.85939 | 4298 ft | 193 kts | 224° |
| 2026-04-25 13:08 | 49.50827 | -2.86958 | 4027 ft | 196 kts | 200° |
| 2026-04-25 13:08 | 49.49469 | -2.87179 | 3768 ft | 198 kts | 179° |
| 2026-04-25 13:09 | 49.48100 | -2.87050 | 3520 ft | 197 kts | 178° |
| 2026-04-25 13:09 | 49.46739 | -2.87088 | 3271 ft | 195 kts | 185° |
| 2026-04-25 13:09 | 49.45411 | -2.87148 | 3008 ft | 193 kts | 173° |
| 2026-04-25 13:09 | 49.44229 | -2.86256 | 2720 ft | 190 kts | 140° |
| 2026-04-25 13:10 | 49.43368 | -2.84726 | 2459 ft | 191 kts | 123° |
| 2026-04-25 13:10 | 49.42890 | -2.82830 | 2274 ft | 190 kts | 102° |
| 2026-04-25 13:10 | 49.42862 | -2.80834 | 2204 ft | 185 kts | 85° |
| 2026-04-25 13:10 | 49.42980 | -2.78882 | 2149 ft | 182 kts | 86° |
| 2026-04-25 13:11 | 49.43039 | -2.76946 | 2094 ft | 181 kts | 89° |
| 2026-04-25 13:11 | 49.43084 | -2.75024 | 2040 ft | 180 kts | 88° |
| 2026-04-25 13:11 | 49.43137 | -2.73136 | 1977 ft | 179 kts | 88° |
| 2026-04-25 13:11 | 49.43204 | -2.71173 | 1619 ft | 189 kts | 87° |
| 2026-04-25 13:12 | 49.43237 | -2.69795 | 1348 ft | 192 kts | 88° |
| 2026-04-25 13:12 | 49.43298 | -2.67861 | 1068 ft | 166 kts | 89° |
| 2026-04-25 13:12 | 49.43334 | -2.66204 | 874 ft | 157 kts | 90° |
| 2026-04-25 13:12 | 49.43354 | -2.65078 | 766 ft | 159 kts | 89° |
| 2026-04-25 13:13 | 49.43411 | -2.63066 | 485 ft | 115 kts | 88° |
| 2026-04-25 13:13 | 49.43449 | -2.61909 | 354 ft | 120 kts | 88° |
| 2026-04-25 13:13 | 49.43479 | -2.60779 | 322 ft | 58 kts | 87° |
| 2026-04-25 13:13 | 49.43498 | -2.60110 | 335 ft | 49 kts | 87° |
| 2026-04-25 13:14 | 49.43497 | -2.59887 | 337 ft | 7 kts | 125° |
| 2026-04-25 13:14 | 49.43430 | -2.59862 | 341 ft | 13 kts | 179° |
| 2026-04-25 13:14 | 49.43396 | -2.59859 | 341 ft | 0 kts | 178° |
| 2026-04-25 13:15 | 49.43343 | -2.59913 | 341 ft | 11 kts | 266° |
| 2026-04-25 13:15 | 49.43272 | -2.59929 | 341 ft | 10 kts | 180° |
| 2026-04-25 13:15 | 49.43268 | -2.59928 | 341 ft | 0 kts | 178° |
| 2026-04-25 13:16 | 49.43239 | -2.59926 | 341 ft | 8 kts | 177° |
| 2026-04-25 13:16 | 49.43205 | -2.59889 | 341 ft | 6 kts | 63° |
| 2026-04-25 13:16 | 49.43219 | -2.59878 | 340 ft | 0 kts | 303° |